This is the latest recevied weather packets stored in our database for station/object DC1MAK-13. If no packets are shown the sender has not sent any weather packets the latest 10 day(s).
| Time | Temp. | Humidity | Pressure | Rain* | Wind** | Luminosity | Snow |
|---|---|---|---|---|---|---|---|
| 1787906836 | 22.78° C | 87% | 984.4 hPa | - | - | - | - |
| 1787906538 | 22.78° C | 82% | 983.1 hPa | - | - | - | - |
| 1787906235 | 22.78° C | 80% | 982 hPa | - | - | - | - |
| 1787905932 | 23.33° C | 79% | 981.1 hPa | - | - | - | - |
| 1787905327 | 23.89° C | 77% | 981 hPa | - | - | - | - |
| 1787905027 | 23.89° C | 75% | 981.1 hPa | - | - | - | - |
| 1787904718 | 24.44° C | 73% | 981.3 hPa | - | - | - | - |
| 1787904414 | 25° C | 73% | 981.3 hPa | - | - | - | - |
| 1787904111 | 25° C | 73% | 981 hPa | - | - | - | - |
| 1787903507 | 25° C | 73% | 981.3 hPa | - | - | - | - |
| 1787903200 | 25° C | 75% | 981.2 hPa | - | - | - | - |
| 1787902897 | 25° C | 73% | 981.5 hPa | - | - | - | - |
| 1787902593 | 25° C | 74% | 981.6 hPa | - | - | - | - |
| 1787901687 | 24.44° C | 75% | 982.1 hPa | - | - | - | - |
| 1787901380 | 24.44° C | 75% | 982.1 hPa | - | - | - | - |
| 1787901076 | 24.44° C | 76% | 982.2 hPa | - | - | - | - |
| 1787900773 | 23.89° C | 77% | 982.4 hPa | - | - | - | - |
| 1787900463 | 23.33° C | 81% | 982.6 hPa | - | - | - | - |
| 1787900167 | 22.78° C | 84% | 982.5 hPa | - | - | - | - |
| 1787899867 | 22.78° C | 86% | 982.5 hPa | - | - | - | - |
| 1787899559 | 22.22° C | 87% | 982.6 hPa | - | - | - | - |
| 1787899255 | 22.22° C | 89% | 982.6 hPa | - | - | - | - |
| 1787898952 | 22.22° C | 89% | 982.6 hPa | - | - | - | - |
| 1787898347 | 21.67° C | 90% | 982.6 hPa | - | - | - | - |
| 1787898047 | 21.67° C | 91% | 982.3 hPa | - | - | - | - |
* Rain since midnight (hover to see other rain measurements)
** Current wind speed in m/s (hover to see current wind gust speed)